San Diego, California
Traffic Map
Current Weather Conditions
San Diego, California
Broken Clouds
Broken Clouds
100°
Feels Like: 100°
Wind Chill: 100° Ceiling: 22000
Heat Index: 100° Visibility: 10mi
Dew Point: 41° Wind: 14mph
Humidity: 13% Direction: 50° (NE)
Pressure: 29.86in Gusts: 25mph
Raw Report DataKSAN 262151Z 05012G22KT 10SM FEW018 BKN220 BKN250 38/05 A2986 RMK AO2 SLP112 T03780050
Traffic Incident Summary
Active as of:
Severity:
Category:
InformationThere was an issue retrieving the traffic information for this location. Please try a different location or try again shortly.
Advertisements
Track Severe Weather on mobile